Terminal Aerodrome Forecast
Issued by NWS

Home | Current Version | Previous Version | Text Only | Print | Product List | Glossary On
Versions: 1 2 3 4 5 6 7 8 9 10 11 12 13 14 15 16
000
FTUS43 KDMX 221507 AAA
TAFOTM
TAF AMD
KOTM 221507Z 2215/2312 23010KT P6SM SKC
     FM221700 26010KT P6SM SCT200
     FM221800 31010KT P6SM SCT200
     FM221900 34010KT P6SM SCT150
     FM230100 36007KT P6SM SCT210=

USA.gov is the U.S. government's official web portal to all federal, state and local government web resources and services.